sensor_id;sensor_type;location;lat;lon;timestamp;P1;durP1;ratioP1;P2;durP2;ratioP2
40717;SDS011;26405;51.850;-2.246;2023-06-10T00:00:42;18.67;;;5.72;;
40717;SDS011;26405;51.850;-2.246;2023-06-10T00:03:07;21.93;;;5.93;;
40717;SDS011;26405;51.850;-2.246;2023-06-10T00:05:34;13.57;;;4.50;;
40717;SDS011;26405;51.850;-2.246;2023-06-10T00:08:00;17.13;;;5.33;;
40717;SDS011;26405;51.850;-2.246;2023-06-10T00:12:51;16.53;;;5.17;;
40717;SDS011;26405;51.850;-2.246;2023-06-10T00:15:17;17.83;;;5.90;;
40717;SDS011;26405;51.850;-2.246;2023-06-10T00:17:42;15.67;;;5.17;;
40717;SDS011;26405;51.850;-2.246;2023-06-10T00:20:08;17.20;;;5.13;;
40717;SDS011;26405;51.850;-2.246;2023-06-10T00:22:35;18.02;;;5.43;;
40717;SDS011;26405;51.850;-2.246;2023-06-10T00:25:01;17.47;;;5.40;;
40717;SDS011;26405;51.850;-2.246;2023-06-10T00:27:28;18.17;;;5.82;;
40717;SDS011;26405;51.850;-2.246;2023-06-10T00:29:59;16.70;;;5.55;;
40717;SDS011;26405;51.850;-2.246;2023-06-10T00:32:25;18.63;;;5.90;;
40717;SDS011;26405;51.850;-2.246;2023-06-10T00:34:50;18.38;;;5.72;;
40717;SDS011;26405;51.850;-2.246;2023-06-10T00:37:15;16.07;;;5.50;;
40717;SDS011;26405;51.850;-2.246;2023-06-10T00:39:40;19.80;;;6.27;;
40717;SDS011;26405;51.850;-2.246;2023-06-10T00:42:06;15.60;;;5.43;;
40717;SDS011;26405;51.850;-2.246;2023-06-10T00:44:32;18.05;;;5.78;;
40717;SDS011;26405;51.850;-2.246;2023-06-10T00:46:57;17.20;;;5.53;;
40717;SDS011;26405;51.850;-2.246;2023-06-10T00:49:22;19.37;;;6.00;;
40717;SDS011;26405;51.850;-2.246;2023-06-10T00:51:48;20.67;;;5.95;;
40717;SDS011;26405;51.850;-2.246;2023-06-10T00:54:13;18.88;;;6.15;;
40717;SDS011;26405;51.850;-2.246;2023-06-10T00:56:38;18.60;;;5.55;;
40717;SDS011;26405;51.850;-2.246;2023-06-10T00:59:03;17.33;;;5.65;;
40717;SDS011;26405;51.850;-2.246;2023-06-10T01:01:29;17.42;;;5.50;;
40717;SDS011;26405;51.850;-2.246;2023-06-10T01:03:54;18.73;;;5.93;;
40717;SDS011;26405;51.850;-2.246;2023-06-10T01:09:02;17.83;;;6.32;;
40717;SDS011;26405;51.850;-2.246;2023-06-10T01:11:36;19.38;;;6.07;;
40717;SDS011;26405;51.850;-2.246;2023-06-10T01:14:05;17.23;;;6.05;;
40717;SDS011;26405;51.850;-2.246;2023-06-10T01:16:32;18.77;;;6.03;;
40717;SDS011;26405;51.850;-2.246;2023-06-10T01:18:58;17.90;;;6.25;;
40717;SDS011;26405;51.850;-2.246;2023-06-10T01:21:23;19.50;;;6.90;;
40717;SDS011;26405;51.850;-2.246;2023-06-10T01:23:49;21.57;;;6.87;;
40717;SDS011;26405;51.850;-2.246;2023-06-10T01:26:14;19.60;;;6.47;;
40717;SDS011;26405;51.850;-2.246;2023-06-10T01:28:42;20.10;;;5.82;;
40717;SDS011;26405;51.850;-2.246;2023-06-10T01:33:41;15.15;;;5.60;;
40717;SDS011;26405;51.850;-2.246;2023-06-10T01:36:07;18.67;;;6.28;;
40717;SDS011;26405;51.850;-2.246;2023-06-10T01:38:35;18.35;;;6.35;;
40717;SDS011;26405;51.850;-2.246;2023-06-10T01:41:01;17.38;;;6.13;;
40717;SDS011;26405;51.850;-2.246;2023-06-10T01:43:28;18.75;;;6.03;;
40717;SDS011;26405;51.850;-2.246;2023-06-10T01:45:53;18.63;;;6.67;;
40717;SDS011;26405;51.850;-2.246;2023-06-10T01:48:18;19.23;;;6.25;;
40717;SDS011;26405;51.850;-2.246;2023-06-10T01:50:43;18.87;;;5.90;;
40717;SDS011;26405;51.850;-2.246;2023-06-10T01:53:09;17.15;;;5.95;;
40717;SDS011;26405;51.850;-2.246;2023-06-10T01:55:34;18.50;;;6.10;;
40717;SDS011;26405;51.850;-2.246;2023-06-10T01:58:00;19.13;;;6.30;;
40717;SDS011;26405;51.850;-2.246;2023-06-10T02:00:25;16.55;;;5.97;;
40717;SDS011;26405;51.850;-2.246;2023-06-10T02:02:50;17.03;;;5.93;;
40717;SDS011;26405;51.850;-2.246;2023-06-10T02:05:15;19.15;;;5.95;;
40717;SDS011;26405;51.850;-2.246;2023-06-10T02:07:41;18.45;;;6.10;;
40717;SDS011;26405;51.850;-2.246;2023-06-10T02:10:06;20.50;;;6.80;;
40717;SDS011;26405;51.850;-2.246;2023-06-10T02:12:31;17.52;;;6.05;;
40717;SDS011;26405;51.850;-2.246;2023-06-10T02:14:57;18.55;;;6.22;;
40717;SDS011;26405;51.850;-2.246;2023-06-10T02:17:22;18.00;;;6.15;;
40717;SDS011;26405;51.850;-2.246;2023-06-10T02:19:48;15.52;;;6.35;;
40717;SDS011;26405;51.850;-2.246;2023-06-10T02:22:17;18.77;;;6.97;;
40717;SDS011;26405;51.850;-2.246;2023-06-10T02:24:42;20.03;;;6.60;;
40717;SDS011;26405;51.850;-2.246;2023-06-10T02:27:08;19.00;;;6.70;;
40717;SDS011;26405;51.850;-2.246;2023-06-10T02:29:34;17.23;;;6.53;;
40717;SDS011;26405;51.850;-2.246;2023-06-10T02:34:25;18.98;;;6.35;;
40717;SDS011;26405;51.850;-2.246;2023-06-10T02:36:50;17.48;;;6.35;;
40717;SDS011;26405;51.850;-2.246;2023-06-10T02:39:16;19.38;;;6.55;;
40717;SDS011;26405;51.850;-2.246;2023-06-10T02:41:41;18.23;;;6.30;;
40717;SDS011;26405;51.850;-2.246;2023-06-10T02:44:07;17.38;;;6.10;;
40717;SDS011;26405;51.850;-2.246;2023-06-10T02:46:32;18.30;;;6.90;;
40717;SDS011;26405;51.850;-2.246;2023-06-10T02:48:57;21.03;;;7.10;;
40717;SDS011;26405;51.850;-2.246;2023-06-10T02:51:22;16.85;;;5.95;;
40717;SDS011;26405;51.850;-2.246;2023-06-10T02:53:48;16.47;;;6.47;;
40717;SDS011;26405;51.850;-2.246;2023-06-10T02:56:13;17.13;;;6.23;;
40717;SDS011;26405;51.850;-2.246;2023-06-10T02:58:38;18.77;;;6.50;;
40717;SDS011;26405;51.850;-2.246;2023-06-10T03:01:04;19.65;;;6.72;;
40717;SDS011;26405;51.850;-2.246;2023-06-10T03:03:29;18.63;;;6.73;;
40717;SDS011;26405;51.850;-2.246;2023-06-10T03:05:55;18.40;;;6.73;;
40717;SDS011;26405;51.850;-2.246;2023-06-10T03:08:21;21.87;;;6.77;;
40717;SDS011;26405;51.850;-2.246;2023-06-10T03:10:46;19.63;;;6.57;;
40717;SDS011;26405;51.850;-2.246;2023-06-10T03:13:12;17.13;;;6.13;;
40717;SDS011;26405;51.850;-2.246;2023-06-10T03:15:37;17.55;;;6.18;;
40717;SDS011;26405;51.850;-2.246;2023-06-10T03:18:02;18.65;;;6.88;;
40717;SDS011;26405;51.850;-2.246;2023-06-10T03:20:28;21.87;;;7.33;;
40717;SDS011;26405;51.850;-2.246;2023-06-10T03:22:53;17.63;;;6.68;;
40717;SDS011;26405;51.850;-2.246;2023-06-10T03:25:19;20.27;;;7.10;;
40717;SDS011;26405;51.850;-2.246;2023-06-10T03:27:46;17.67;;;6.65;;
40717;SDS011;26405;51.850;-2.246;2023-06-10T03:30:11;18.70;;;6.43;;
40717;SDS011;26405;51.850;-2.246;2023-06-10T03:32:37;16.00;;;6.10;;
40717;SDS011;26405;51.850;-2.246;2023-06-10T03:35:02;17.75;;;6.18;;
40717;SDS011;26405;51.850;-2.246;2023-06-10T03:37:28;21.10;;;7.20;;
40717;SDS011;26405;51.850;-2.246;2023-06-10T03:39:53;18.02;;;6.88;;
40717;SDS011;26405;51.850;-2.246;2023-06-10T03:42:18;18.43;;;6.50;;
40717;SDS011;26405;51.850;-2.246;2023-06-10T03:44:43;19.60;;;7.23;;
40717;SDS011;26405;51.850;-2.246;2023-06-10T03:47:09;23.77;;;7.78;;
40717;SDS011;26405;51.850;-2.246;2023-06-10T03:49:34;19.90;;;6.97;;
40717;SDS011;26405;51.850;-2.246;2023-06-10T03:54:26;20.77;;;7.30;;
40717;SDS011;26405;51.850;-2.246;2023-06-10T03:56:51;19.42;;;6.53;;
40717;SDS011;26405;51.850;-2.246;2023-06-10T03:59:17;18.60;;;6.25;;
40717;SDS011;26405;51.850;-2.246;2023-06-10T04:01:42;19.83;;;6.90;;
40717;SDS011;26405;51.850;-2.246;2023-06-10T04:04:08;19.65;;;7.20;;
40717;SDS011;26405;51.850;-2.246;2023-06-10T04:06:33;19.27;;;6.47;;
40717;SDS011;26405;51.850;-2.246;2023-06-10T04:08:59;18.10;;;6.57;;
40717;SDS011;26405;51.850;-2.246;2023-06-10T04:11:24;20.33;;;6.40;;
40717;SDS011;26405;51.850;-2.246;2023-06-10T04:13:50;18.88;;;6.43;;
40717;SDS011;26405;51.850;-2.246;2023-06-10T04:16:15;16.40;;;6.30;;
40717;SDS011;26405;51.850;-2.246;2023-06-10T04:18:41;16.40;;;5.78;;
40717;SDS011;26405;51.850;-2.246;2023-06-10T04:21:07;20.50;;;6.43;;
40717;SDS011;26405;51.850;-2.246;2023-06-10T04:23:32;21.15;;;6.75;;
40717;SDS011;26405;51.850;-2.246;2023-06-10T04:25:57;19.05;;;6.13;;
40717;SDS011;26405;51.850;-2.246;2023-06-10T04:30:49;19.02;;;6.10;;
40717;SDS011;26405;51.850;-2.246;2023-06-10T04:33:14;19.23;;;6.65;;
40717;SDS011;26405;51.850;-2.246;2023-06-10T04:35:40;20.20;;;6.70;;
40717;SDS011;26405;51.850;-2.246;2023-06-10T04:38:05;16.10;;;5.95;;
40717;SDS011;26405;51.850;-2.246;2023-06-10T04:40:30;20.53;;;6.73;;
40717;SDS011;26405;51.850;-2.246;2023-06-10T04:42:55;20.63;;;6.63;;
40717;SDS011;26405;51.850;-2.246;2023-06-10T04:45:21;16.37;;;6.07;;
40717;SDS011;26405;51.850;-2.246;2023-06-10T04:47:46;16.60;;;5.77;;
40717;SDS011;26405;51.850;-2.246;2023-06-10T04:50:11;15.90;;;5.67;;
40717;SDS011;26405;51.850;-2.246;2023-06-10T04:52:37;15.63;;;5.50;;
40717;SDS011;26405;51.850;-2.246;2023-06-10T04:55:02;17.35;;;5.90;;
40717;SDS011;26405;51.850;-2.246;2023-06-10T04:57:28;18.33;;;6.50;;
40717;SDS011;26405;51.850;-2.246;2023-06-10T04:59:53;20.30;;;6.32;;
40717;SDS011;26405;51.850;-2.246;2023-06-10T05:02:18;20.63;;;6.47;;
40717;SDS011;26405;51.850;-2.246;2023-06-10T05:04:44;20.40;;;6.45;;
40717;SDS011;26405;51.850;-2.246;2023-06-10T05:07:10;19.90;;;6.47;;
40717;SDS011;26405;51.850;-2.246;2023-06-10T05:09:35;20.77;;;6.30;;
40717;SDS011;26405;51.850;-2.246;2023-06-10T05:12:01;19.47;;;5.90;;
40717;SDS011;26405;51.850;-2.246;2023-06-10T05:14:27;19.80;;;5.97;;
40717;SDS011;26405;51.850;-2.246;2023-06-10T05:16:52;20.80;;;6.22;;
40717;SDS011;26405;51.850;-2.246;2023-06-10T05:19:18;19.33;;;5.87;;
40717;SDS011;26405;51.850;-2.246;2023-06-10T05:21:43;17.33;;;6.37;;
40717;SDS011;26405;51.850;-2.246;2023-06-10T05:24:09;21.43;;;6.17;;
40717;SDS011;26405;51.850;-2.246;2023-06-10T05:26:34;22.10;;;6.57;;
40717;SDS011;26405;51.850;-2.246;2023-06-10T05:29:02;23.40;;;6.88;;
40717;SDS011;26405;51.850;-2.246;2023-06-10T05:31:27;20.27;;;6.00;;
40717;SDS011;26405;51.850;-2.246;2023-06-10T05:33:53;18.00;;;5.80;;
40717;SDS011;26405;51.850;-2.246;2023-06-10T05:36:18;18.67;;;5.93;;
40717;SDS011;26405;51.850;-2.246;2023-06-10T05:38:43;18.63;;;6.00;;
40717;SDS011;26405;51.850;-2.246;2023-06-10T05:41:09;20.57;;;6.57;;
40717;SDS011;26405;51.850;-2.246;2023-06-10T05:43:34;19.23;;;5.95;;
40717;SDS011;26405;51.850;-2.246;2023-06-10T05:46:00;20.50;;;6.53;;
40717;SDS011;26405;51.850;-2.246;2023-06-10T05:48:25;18.95;;;5.57;;
40717;SDS011;26405;51.850;-2.246;2023-06-10T05:50:51;20.60;;;6.55;;
40717;SDS011;26405;51.850;-2.246;2023-06-10T05:53:16;18.60;;;6.53;;
40717;SDS011;26405;51.850;-2.246;2023-06-10T05:55:44;20.33;;;6.30;;
40717;SDS011;26405;51.850;-2.246;2023-06-10T05:58:10;17.27;;;6.30;;
40717;SDS011;26405;51.850;-2.246;2023-06-10T06:00:37;18.73;;;5.93;;
40717;SDS011;26405;51.850;-2.246;2023-06-10T06:03:02;21.57;;;6.33;;
40717;SDS011;26405;51.850;-2.246;2023-06-10T06:05:27;16.17;;;5.77;;
40717;SDS011;26405;51.850;-2.246;2023-06-10T06:07:53;18.63;;;6.00;;
40717;SDS011;26405;51.850;-2.246;2023-06-10T06:10:18;18.20;;;5.90;;
40717;SDS011;26405;51.850;-2.246;2023-06-10T06:12:43;18.53;;;6.07;;
40717;SDS011;26405;51.850;-2.246;2023-06-10T06:15:09;20.10;;;6.33;;
40717;SDS011;26405;51.850;-2.246;2023-06-10T06:17:35;19.70;;;6.30;;
40717;SDS011;26405;51.850;-2.246;2023-06-10T06:20:00;17.83;;;6.30;;
40717;SDS011;26405;51.850;-2.246;2023-06-10T06:22:25;16.90;;;5.77;;
40717;SDS011;26405;51.850;-2.246;2023-06-10T06:24:51;18.57;;;6.50;;
40717;SDS011;26405;51.850;-2.246;2023-06-10T06:27:16;18.00;;;6.13;;
40717;SDS011;26405;51.850;-2.246;2023-06-10T06:29:41;19.33;;;5.70;;
40717;SDS011;26405;51.850;-2.246;2023-06-10T06:32:06;21.20;;;6.33;;
40717;SDS011;26405;51.850;-2.246;2023-06-10T06:34:32;16.27;;;5.70;;
40717;SDS011;26405;51.850;-2.246;2023-06-10T06:36:58;19.63;;;6.40;;
40717;SDS011;26405;51.850;-2.246;2023-06-10T06:39:23;21.57;;;6.27;;
40717;SDS011;26405;51.850;-2.246;2023-06-10T06:41:48;20.27;;;6.20;;
40717;SDS011;26405;51.850;-2.246;2023-06-10T06:44:14;20.50;;;6.27;;
40717;SDS011;26405;51.850;-2.246;2023-06-10T06:46:39;18.40;;;5.43;;
40717;SDS011;26405;51.850;-2.246;2023-06-10T06:49:04;18.93;;;5.70;;
40717;SDS011;26405;51.850;-2.246;2023-06-10T06:51:30;17.33;;;6.60;;
40717;SDS011;26405;51.850;-2.246;2023-06-10T06:53:55;18.97;;;6.03;;
40717;SDS011;26405;51.850;-2.246;2023-06-10T06:56:23;20.35;;;6.30;;
40717;SDS011;26405;51.850;-2.246;2023-06-10T06:58:49;19.50;;;6.40;;
40717;SDS011;26405;51.850;-2.246;2023-06-10T07:01:14;15.70;;;5.97;;
40717;SDS011;26405;51.850;-2.246;2023-06-10T07:03:39;17.53;;;6.27;;
40717;SDS011;26405;51.850;-2.246;2023-06-10T07:06:04;17.70;;;5.77;;
40717;SDS011;26405;51.850;-2.246;2023-06-10T07:08:30;18.87;;;5.57;;
40717;SDS011;26405;51.850;-2.246;2023-06-10T07:10:55;17.77;;;6.23;;
40717;SDS011;26405;51.850;-2.246;2023-06-10T07:13:20;18.93;;;6.50;;
40717;SDS011;26405;51.850;-2.246;2023-06-10T07:15:46;17.43;;;5.83;;
40717;SDS011;26405;51.850;-2.246;2023-06-10T07:18:11;18.87;;;6.00;;
40717;SDS011;26405;51.850;-2.246;2023-06-10T07:20:36;18.03;;;6.13;;
40717;SDS011;26405;51.850;-2.246;2023-06-10T07:23:01;17.67;;;6.27;;
40717;SDS011;26405;51.850;-2.246;2023-06-10T07:25:27;17.97;;;6.20;;
40717;SDS011;26405;51.850;-2.246;2023-06-10T07:27:52;20.33;;;6.27;;
40717;SDS011;26405;51.850;-2.246;2023-06-10T07:30:17;17.57;;;6.07;;
40717;SDS011;26405;51.850;-2.246;2023-06-10T07:32:42;18.17;;;6.00;;
40717;SDS011;26405;51.850;-2.246;2023-06-10T07:35:09;18.13;;;6.18;;
40717;SDS011;26405;51.850;-2.246;2023-06-10T07:37:36;21.45;;;6.35;;
40717;SDS011;26405;51.850;-2.246;2023-06-10T07:40:01;19.90;;;5.93;;
40717;SDS011;26405;51.850;-2.246;2023-06-10T07:42:26;18.63;;;6.17;;
40717;SDS011;26405;51.850;-2.246;2023-06-10T07:44:52;18.73;;;6.60;;
40717;SDS011;26405;51.850;-2.246;2023-06-10T07:47:17;20.80;;;6.87;;
40717;SDS011;26405;51.850;-2.246;2023-06-10T07:49:43;19.20;;;6.80;;
40717;SDS011;26405;51.850;-2.246;2023-06-10T07:52:08;20.97;;;6.10;;
40717;SDS011;26405;51.850;-2.246;2023-06-10T07:54:33;19.27;;;7.03;;
40717;SDS011;26405;51.850;-2.246;2023-06-10T07:56:58;19.10;;;5.90;;
40717;SDS011;26405;51.850;-2.246;2023-06-10T07:59:24;18.27;;;6.23;;
40717;SDS011;26405;51.850;-2.246;2023-06-10T08:01:51;21.15;;;6.53;;
40717;SDS011;26405;51.850;-2.246;2023-06-10T08:04:16;17.90;;;6.13;;
40717;SDS011;26405;51.850;-2.246;2023-06-10T08:06:41;19.27;;;6.27;;
40717;SDS011;26405;51.850;-2.246;2023-06-10T08:09:07;22.47;;;7.07;;
40717;SDS011;26405;51.850;-2.246;2023-06-10T08:11:32;17.13;;;5.87;;
40717;SDS011;26405;51.850;-2.246;2023-06-10T08:13:57;21.17;;;6.70;;
40717;SDS011;26405;51.850;-2.246;2023-06-10T08:16:22;19.40;;;6.13;;
40717;SDS011;26405;51.850;-2.246;2023-06-10T08:18:48;16.83;;;5.83;;
40717;SDS011;26405;51.850;-2.246;2023-06-10T08:21:15;17.08;;;6.25;;
40717;SDS011;26405;51.850;-2.246;2023-06-10T08:23:40;17.77;;;6.40;;
40717;SDS011;26405;51.850;-2.246;2023-06-10T08:26:05;18.50;;;6.83;;
40717;SDS011;26405;51.850;-2.246;2023-06-10T08:28:31;18.80;;;6.97;;
40717;SDS011;26405;51.850;-2.246;2023-06-10T08:30:56;18.10;;;6.87;;
40717;SDS011;26405;51.850;-2.246;2023-06-10T08:33:21;17.53;;;6.07;;
40717;SDS011;26405;51.850;-2.246;2023-06-10T08:35:46;21.53;;;7.23;;
40717;SDS011;26405;51.850;-2.246;2023-06-10T08:38:12;17.73;;;6.17;;
40717;SDS011;26405;51.850;-2.246;2023-06-10T08:40:37;20.60;;;7.07;;
40717;SDS011;26405;51.850;-2.246;2023-06-10T08:43:06;21.10;;;6.83;;
40717;SDS011;26405;51.850;-2.246;2023-06-10T08:45:35;17.48;;;6.03;;
40717;SDS011;26405;51.850;-2.246;2023-06-10T08:48:00;20.67;;;6.78;;
40717;SDS011;26405;51.850;-2.246;2023-06-10T08:50:28;20.10;;;6.90;;
40717;SDS011;26405;51.850;-2.246;2023-06-10T08:52:56;16.23;;;6.32;;
40717;SDS011;26405;51.850;-2.246;2023-06-10T08:55:38;18.70;;;6.75;;
40717;SDS011;26405;51.850;-2.246;2023-06-10T08:58:03;18.05;;;6.72;;
40717;SDS011;26405;51.850;-2.246;2023-06-10T09:00:29;18.00;;;6.37;;
40717;SDS011;26405;51.850;-2.246;2023-06-10T09:02:58;18.40;;;6.50;;
40717;SDS011;26405;51.850;-2.246;2023-06-10T09:05:23;18.50;;;6.40;;
40717;SDS011;26405;51.850;-2.246;2023-06-10T09:07:49;18.40;;;7.10;;
40717;SDS011;26405;51.850;-2.246;2023-06-10T09:10:16;18.13;;;7.07;;
40717;SDS011;26405;51.850;-2.246;2023-06-10T09:12:41;20.40;;;6.97;;
40717;SDS011;26405;51.850;-2.246;2023-06-10T09:15:06;21.93;;;6.57;;
40717;SDS011;26405;51.850;-2.246;2023-06-10T09:17:32;19.30;;;7.10;;
40717;SDS011;26405;51.850;-2.246;2023-06-10T09:19:59;18.43;;;6.67;;
40717;SDS011;26405;51.850;-2.246;2023-06-10T09:22:24;19.58;;;7.07;;
40717;SDS011;26405;51.850;-2.246;2023-06-10T09:24:51;19.20;;;6.70;;
40717;SDS011;26405;51.850;-2.246;2023-06-10T09:27:17;18.50;;;6.77;;
40717;SDS011;26405;51.850;-2.246;2023-06-10T09:29:45;20.00;;;7.17;;
40717;SDS011;26405;51.850;-2.246;2023-06-10T09:32:11;21.27;;;7.88;;
40717;SDS011;26405;51.850;-2.246;2023-06-10T09:34:37;18.30;;;7.03;;
40717;SDS011;26405;51.850;-2.246;2023-06-10T09:37:02;26.60;;;7.60;;
40717;SDS011;26405;51.850;-2.246;2023-06-10T09:39:27;18.47;;;6.97;;
40717;SDS011;26405;51.850;-2.246;2023-06-10T09:41:52;20.10;;;6.67;;
40717;SDS011;26405;51.850;-2.246;2023-06-10T09:44:18;17.80;;;6.53;;
40717;SDS011;26405;51.850;-2.246;2023-06-10T09:46:48;17.95;;;6.63;;
40717;SDS011;26405;51.850;-2.246;2023-06-10T09:49:14;18.98;;;6.78;;
40717;SDS011;26405;51.850;-2.246;2023-06-10T09:54:05;20.55;;;7.03;;
40717;SDS011;26405;51.850;-2.246;2023-06-10T09:56:37;19.23;;;6.37;;
40717;SDS011;26405;51.850;-2.246;2023-06-10T09:59:03;19.80;;;6.75;;
40717;SDS011;26405;51.850;-2.246;2023-06-10T10:01:29;17.52;;;6.85;;
40717;SDS011;26405;51.850;-2.246;2023-06-10T10:03:55;20.20;;;6.85;;
40717;SDS011;26405;51.850;-2.246;2023-06-10T10:06:20;18.50;;;7.00;;
40717;SDS011;26405;51.850;-2.246;2023-06-10T10:08:49;19.93;;;6.97;;
40717;SDS011;26405;51.850;-2.246;2023-06-10T10:11:19;19.30;;;7.28;;
40717;SDS011;26405;51.850;-2.246;2023-06-10T10:13:48;19.50;;;6.88;;
40717;SDS011;26405;51.850;-2.246;2023-06-10T10:16:17;18.42;;;7.00;;
40717;SDS011;26405;51.850;-2.246;2023-06-10T10:18:49;18.02;;;6.30;;
40717;SDS011;26405;51.850;-2.246;2023-06-10T10:21:16;19.48;;;6.88;;
40717;SDS011;26405;51.850;-2.246;2023-06-10T10:23:46;18.63;;;6.85;;
40717;SDS011;26405;51.850;-2.246;2023-06-10T10:26:13;20.30;;;6.78;;
40717;SDS011;26405;51.850;-2.246;2023-06-10T10:28:41;17.97;;;7.10;;
40717;SDS011;26405;51.850;-2.246;2023-06-10T10:31:08;19.20;;;7.35;;
40717;SDS011;26405;51.850;-2.246;2023-06-10T10:33:40;18.10;;;7.38;;
40717;SDS011;26405;51.850;-2.246;2023-06-10T10:36:07;22.27;;;7.30;;
40717;SDS011;26405;51.850;-2.246;2023-06-10T10:38:32;22.75;;;7.22;;
40717;SDS011;26405;51.850;-2.246;2023-06-10T10:40:58;19.73;;;6.95;;
40717;SDS011;26405;51.850;-2.246;2023-06-10T10:43:26;20.98;;;7.93;;
40717;SDS011;26405;51.850;-2.246;2023-06-10T10:46:01;20.90;;;6.97;;
40717;SDS011;26405;51.850;-2.246;2023-06-10T10:48:37;21.35;;;6.65;;
40717;SDS011;26405;51.850;-2.246;2023-06-10T10:51:02;18.90;;;6.75;;
40717;SDS011;26405;51.850;-2.246;2023-06-10T10:53:28;18.40;;;6.77;;
40717;SDS011;26405;51.850;-2.246;2023-06-10T10:58:25;17.15;;;6.90;;
40717;SDS011;26405;51.850;-2.246;2023-06-10T11:00:51;16.63;;;7.18;;
40717;SDS011;26405;51.850;-2.246;2023-06-10T11:03:16;17.87;;;6.60;;
40717;SDS011;26405;51.850;-2.246;2023-06-10T11:05:42;17.58;;;6.13;;
40717;SDS011;26405;51.850;-2.246;2023-06-10T11:08:13;16.27;;;6.57;;
40717;SDS011;26405;51.850;-2.246;2023-06-10T11:10:39;13.80;;;5.68;;
40717;SDS011;26405;51.850;-2.246;2023-06-10T11:13:05;18.15;;;6.43;;
40717;SDS011;26405;51.850;-2.246;2023-06-10T11:15:32;21.15;;;7.85;;
40717;SDS011;26405;51.850;-2.246;2023-06-10T11:23:07;18.75;;;6.88;;
40717;SDS011;26405;51.850;-2.246;2023-06-10T11:25:39;18.08;;;7.40;;
40717;SDS011;26405;51.850;-2.246;2023-06-10T11:28:17;19.23;;;7.03;;
40717;SDS011;26405;51.850;-2.246;2023-06-10T11:30:42;18.55;;;7.10;;
40717;SDS011;26405;51.850;-2.246;2023-06-10T11:33:07;15.80;;;6.63;;
40717;SDS011;26405;51.850;-2.246;2023-06-10T11:35:33;15.38;;;6.47;;
40717;SDS011;26405;51.850;-2.246;2023-06-10T11:37:58;15.63;;;6.07;;
40717;SDS011;26405;51.850;-2.246;2023-06-10T11:40:23;17.25;;;7.03;;
40717;SDS011;26405;51.850;-2.246;2023-06-10T11:45:14;18.47;;;6.63;;
40717;SDS011;26405;51.850;-2.246;2023-06-10T11:47:41;16.98;;;6.40;;
40717;SDS011;26405;51.850;-2.246;2023-06-10T11:50:27;17.00;;;6.53;;
40717;SDS011;26405;51.850;-2.246;2023-06-10T11:52:52;16.15;;;5.90;;
40717;SDS011;26405;51.850;-2.246;2023-06-10T11:55:20;15.60;;;5.90;;
40717;SDS011;26405;51.850;-2.246;2023-06-10T11:57:46;20.17;;;6.63;;
40717;SDS011;26405;51.850;-2.246;2023-06-10T12:02:36;15.75;;;5.80;;
40717;SDS011;26405;51.850;-2.246;2023-06-10T12:07:26;16.33;;;6.17;;
40717;SDS011;26405;51.850;-2.246;2023-06-10T12:12:17;17.42;;;6.60;;
40717;SDS011;26405;51.850;-2.246;2023-06-10T12:14:51;16.08;;;6.35;;
40717;SDS011;26405;51.850;-2.246;2023-06-10T12:20:03;15.75;;;6.38;;
40717;SDS011;26405;51.850;-2.246;2023-06-10T12:22:41;14.43;;;6.30;;
40717;SDS011;26405;51.850;-2.246;2023-06-10T12:25:07;14.45;;;6.50;;
40717;SDS011;26405;51.850;-2.246;2023-06-10T12:27:33;17.23;;;6.43;;
40717;SDS011;26405;51.850;-2.246;2023-06-10T12:35:26;14.00;;;5.55;;
40717;SDS011;26405;51.850;-2.246;2023-06-10T12:40:29;15.65;;;5.93;;
40717;SDS011;26405;51.850;-2.246;2023-06-10T12:42:56;14.10;;;5.93;;
40717;SDS011;26405;51.850;-2.246;2023-06-10T12:45:28;13.87;;;6.00;;
40717;SDS011;26405;51.850;-2.246;2023-06-10T12:48:03;11.13;;;5.63;;
40717;SDS011;26405;51.850;-2.246;2023-06-10T12:50:29;12.50;;;4.97;;
40717;SDS011;26405;51.850;-2.246;2023-06-10T12:52:55;11.80;;;5.30;;
40717;SDS011;26405;51.850;-2.246;2023-06-10T12:55:20;12.50;;;5.13;;
40717;SDS011;26405;51.850;-2.246;2023-06-10T12:57:49;10.90;;;4.97;;
40717;SDS011;26405;51.850;-2.246;2023-06-10T13:00:15;10.70;;;5.43;;
40717;SDS011;26405;51.850;-2.246;2023-06-10T13:02:40;12.50;;;5.40;;
40717;SDS011;26405;51.850;-2.246;2023-06-10T13:05:05;13.63;;;5.13;;
40717;SDS011;26405;51.850;-2.246;2023-06-10T13:07:30;13.02;;;5.70;;
40717;SDS011;26405;51.850;-2.246;2023-06-10T13:09:56;11.17;;;5.23;;
40717;SDS011;26405;51.850;-2.246;2023-06-10T13:12:21;15.10;;;5.20;;
40717;SDS011;26405;51.850;-2.246;2023-06-10T13:14:47;15.90;;;5.60;;
40717;SDS011;26405;51.850;-2.246;2023-06-10T13:17:12;13.03;;;5.33;;
40717;SDS011;26405;51.850;-2.246;2023-06-10T13:19:37;12.55;;;5.63;;
40717;SDS011;26405;51.850;-2.246;2023-06-10T13:22:02;11.27;;;5.67;;
40717;SDS011;26405;51.850;-2.246;2023-06-10T13:24:28;10.30;;;5.28;;
40717;SDS011;26405;51.850;-2.246;2023-06-10T13:26:53;11.97;;;5.63;;
40717;SDS011;26405;51.850;-2.246;2023-06-10T13:29:20;12.68;;;5.70;;
40717;SDS011;26405;51.850;-2.246;2023-06-10T13:31:45;12.30;;;5.53;;
40717;SDS011;26405;51.850;-2.246;2023-06-10T13:34:10;13.17;;;5.03;;
40717;SDS011;26405;51.850;-2.246;2023-06-10T13:36:36;14.48;;;5.70;;
40717;SDS011;26405;51.850;-2.246;2023-06-10T13:39:01;14.05;;;5.63;;
40717;SDS011;26405;51.850;-2.246;2023-06-10T13:41:27;12.40;;;5.67;;
40717;SDS011;26405;51.850;-2.246;2023-06-10T13:43:53;11.18;;;5.75;;
40717;SDS011;26405;51.850;-2.246;2023-06-10T13:46:19;15.00;;;6.15;;
40717;SDS011;26405;51.850;-2.246;2023-06-10T13:48:46;15.85;;;5.57;;
40717;SDS011;26405;51.850;-2.246;2023-06-10T13:53:37;15.57;;;5.77;;
40717;SDS011;26405;51.850;-2.246;2023-06-10T13:56:02;15.38;;;6.38;;
40717;SDS011;26405;51.850;-2.246;2023-06-10T14:00:52;16.23;;;6.13;;
40717;SDS011;26405;51.850;-2.246;2023-06-10T14:05:43;17.10;;;6.30;;
40717;SDS011;26405;51.850;-2.246;2023-06-10T14:10:33;11.60;;;5.30;;
40717;SDS011;26405;51.850;-2.246;2023-06-10T14:12:59;11.57;;;5.43;;
40717;SDS011;26405;51.850;-2.246;2023-06-10T14:15:25;14.93;;;6.47;;
40717;SDS011;26405;51.850;-2.246;2023-06-10T14:20:15;14.57;;;6.18;;
40717;SDS011;26405;51.850;-2.246;2023-06-10T14:22:41;18.30;;;6.13;;
40717;SDS011;26405;51.850;-2.246;2023-06-10T14:27:31;17.53;;;6.00;;
40717;SDS011;26405;51.850;-2.246;2023-06-10T14:32:22;14.73;;;5.90;;
40717;SDS011;26405;51.850;-2.246;2023-06-10T14:37:12;16.90;;;6.10;;
40717;SDS011;26405;51.850;-2.246;2023-06-10T14:42:03;13.13;;;5.95;;
40717;SDS011;26405;51.850;-2.246;2023-06-10T14:46:54;15.15;;;6.60;;
40717;SDS011;26405;51.850;-2.246;2023-06-10T14:49:19;18.33;;;7.82;;
40717;SDS011;26405;51.850;-2.246;2023-06-10T14:51:45;15.67;;;6.93;;
40717;SDS011;26405;51.850;-2.246;2023-06-10T14:54:10;20.58;;;7.97;;
40717;SDS011;26405;51.850;-2.246;2023-06-10T14:56:35;17.53;;;7.37;;
40717;SDS011;26405;51.850;-2.246;2023-06-10T14:59:01;14.70;;;6.80;;
40717;SDS011;26405;51.850;-2.246;2023-06-10T15:01:26;16.23;;;7.47;;
40717;SDS011;26405;51.850;-2.246;2023-06-10T15:03:51;15.93;;;7.07;;
40717;SDS011;26405;51.850;-2.246;2023-06-10T15:06:16;14.20;;;6.83;;
40717;SDS011;26405;51.850;-2.246;2023-06-10T15:08:45;18.42;;;6.88;;
40717;SDS011;26405;51.850;-2.246;2023-06-10T15:11:13;14.95;;;7.00;;
40717;SDS011;26405;51.850;-2.246;2023-06-10T15:13:38;14.43;;;6.10;;
40717;SDS011;26405;51.850;-2.246;2023-06-10T15:16:04;19.50;;;6.43;;
40717;SDS011;26405;51.850;-2.246;2023-06-10T15:18:29;14.45;;;6.07;;
40717;SDS011;26405;51.850;-2.246;2023-06-10T15:20:54;16.17;;;6.83;;
40717;SDS011;26405;51.850;-2.246;2023-06-10T15:23:19;15.60;;;6.77;;